Terminal Aerodrome Forecast
Issued by NWS Chicago, IL

Home | Current Version | Previous Version | Text Only | Print | Product List | Glossary On
Versions: 1 2 3 4 5 6 7 8 9 10 11 12 13 14 15 16 17 18 19 20 21 22 23 24 25 26 27 28 29 30 31 32 33
320
FTUS43 KLOT 221358 AAA
TAFRFD
TAF AMD
KRFD 221358Z 2214/2312 08006KT P6SM SKC
     FM221800 12006KT P6SM SKC
     FM230100 12005KT P6SM BKN250
     FM231000 15004KT P6SM SCT100 BKN250=

USA.gov is the U.S. government's official web portal to all federal, state and local government web resources and services.